createdAt,value
2019-04-27T00:00:39.326Z,2.73
2019-04-27T00:03:14.366Z,2.90
2019-04-27T00:05:55.656Z,5.60
2019-04-27T00:08:47.875Z,2.87
2019-04-27T00:11:23.696Z,2.20
2019-04-27T00:13:54.288Z,2.83
2019-04-27T00:16:40.480Z,2.30
2019-04-27T00:19:27.422Z,2.57
2019-04-27T00:22:05.569Z,2.20
2019-04-27T00:24:35.877Z,1.87
2019-04-27T00:27:06.253Z,1.90
2019-04-27T00:29:36.637Z,2.23
2019-04-27T00:32:06.933Z,1.70
2019-04-27T00:34:37.400Z,1.97
2019-04-27T00:37:14.536Z,2.53
2019-04-27T00:39:53.303Z,2.23
2019-04-27T00:42:23.733Z,2.10
2019-04-27T00:44:54.626Z,2.07
2019-04-27T00:47:24.862Z,2.17
2019-04-27T00:49:55.371Z,2.00
2019-04-27T00:52:25.821Z,2.00
2019-04-27T00:54:56.318Z,3.20
2019-04-27T00:57:53.676Z,4.47
2019-04-27T01:00:43.988Z,1.93
2019-04-27T01:03:18.447Z,2.60
2019-04-27T01:05:48.649Z,2.03
2019-04-27T01:08:20.047Z,1.60
2019-04-27T01:10:50.473Z,3.00
2019-04-27T01:13:20.846Z,4.50
2019-04-27T01:15:51.056Z,2.13
2019-04-27T01:18:22.366Z,3.47
2019-04-27T01:20:52.567Z,2.57
2019-04-27T01:23:22.881Z,2.57
2019-04-27T01:26:14.920Z,2.63
2019-04-27T01:28:50.866Z,1.60
2019-04-27T01:31:21.073Z,4.83
2019-04-27T01:33:51.366Z,3.73
2019-04-27T01:36:21.596Z,3.03
2019-04-27T01:38:51.886Z,4.57
2019-04-27T01:41:23.202Z,2.47
2019-04-27T01:43:53.630Z,3.27
2019-04-27T01:46:23.875Z,3.27
2019-04-27T01:48:54.130Z,3.93
2019-04-27T01:51:24.497Z,5.13
2019-04-27T01:53:54.862Z,4.13
2019-04-27T01:56:25.290Z,2.13
2019-04-27T01:58:55.498Z,2.60
2019-04-27T02:01:51.821Z,4.07
2019-04-27T02:04:35.266Z,3.23
2019-04-27T02:07:06.800Z,4.27
2019-04-27T02:09:38.695Z,3.33
2019-04-27T02:12:09.431Z,2.73
2019-04-27T02:14:39.863Z,5.63
2019-04-27T02:17:10.170Z,2.63
2019-04-27T02:19:40.525Z,2.47
2019-04-27T02:22:10.748Z,3.87
2019-04-27T02:24:41.057Z,3.57
2019-04-27T02:27:12.068Z,3.33
2019-04-27T02:29:59.759Z,3.10
2019-04-27T02:32:49.841Z,3.13
2019-04-27T02:35:20.290Z,6.77
2019-04-27T02:37:50.532Z,2.97
2019-04-27T02:40:56.249Z,3.63
2019-04-27T02:43:49.770Z,5.80
2019-04-27T02:46:20.230Z,3.33
2019-04-27T02:48:59.673Z,2.77
2019-04-27T02:51:30.919Z,2.90
2019-04-27T02:54:01.257Z,3.07
2019-04-27T02:56:31.664Z,5.00
2019-04-27T02:59:01.863Z,1.67
2019-04-27T03:01:35.612Z,4.30
2019-04-27T03:04:05.844Z,4.07
2019-04-27T03:06:39.777Z,3.73
2019-04-27T03:09:10.525Z,2.30
2019-04-27T03:11:41.245Z,3.03
2019-04-27T03:14:36.224Z,3.30
2019-04-27T03:17:31.249Z,3.87
2019-04-27T03:20:10.605Z,3.53
2019-04-27T03:22:46.975Z,4.17
2019-04-27T03:25:40.057Z,3.17
2019-04-27T03:28:12.656Z,5.47
2019-04-27T03:30:43.529Z,4.73
2019-04-27T03:33:14.162Z,3.73
2019-04-27T03:35:44.446Z,3.57
2019-04-27T03:38:14.748Z,3.63
2019-04-27T03:40:45.144Z,3.10
2019-04-27T03:43:20.491Z,3.70
2019-04-27T03:46:06.477Z,6.13
2019-04-27T03:48:40.707Z,3.50
2019-04-27T03:51:25.031Z,6.67
2019-04-27T03:54:00.616Z,2.53
2019-04-27T03:56:36.127Z,5.07
2019-04-27T03:59:12.829Z,2.13
2019-04-27T04:01:43.077Z,2.73
2019-04-27T04:04:13.355Z,2.93
2019-04-27T04:06:43.908Z,4.27
2019-04-27T04:09:14.300Z,3.77
2019-04-27T04:11:54.105Z,3.67
2019-04-27T04:14:24.772Z,2.70
2019-04-27T04:17:02.724Z,3.03
2019-04-27T04:19:47.696Z,2.50
2019-04-27T04:22:05.078Z,3.20
2019-04-27T04:24:35.281Z,3.63
2019-04-27T04:27:05.757Z,3.23
2019-04-27T04:29:36.247Z,3.80
2019-04-27T04:32:06.481Z,3.97
2019-04-27T04:34:36.883Z,4.80
2019-04-27T04:37:09.171Z,4.97
2019-04-27T04:39:40.362Z,4.23
2019-04-27T04:42:36.025Z,3.07
2019-04-27T04:45:13.839Z,4.00
2019-04-27T04:47:54.423Z,3.23
2019-04-27T04:50:24.814Z,3.43
2019-04-27T04:52:55.126Z,2.60
2019-04-27T04:55:25.490Z,4.50
2019-04-27T04:57:55.736Z,2.70
2019-04-27T05:00:26.168Z,5.40
2019-04-27T05:02:56.376Z,2.67
2019-04-27T05:05:26.686Z,3.50
2019-04-27T05:07:58.733Z,3.53
2019-04-27T05:10:31.183Z,8.47
2019-04-27T05:13:01.792Z,4.00
2019-04-27T05:15:32.033Z,3.83
2019-04-27T05:18:02.284Z,3.83
2019-04-27T05:20:39.689Z,4.80
2019-04-27T05:23:10.014Z,4.20
2019-04-27T05:25:41.352Z,4.90
2019-04-27T05:28:11.587Z,3.60
2019-04-27T05:30:41.840Z,4.37
2019-04-27T05:33:12.240Z,5.23
2019-04-27T05:35:42.607Z,3.60
2019-04-27T05:38:14.171Z,4.97
2019-04-27T05:40:44.422Z,3.67
2019-04-27T05:43:16.220Z,2.43
2019-04-27T05:46:58.777Z,4.20
2019-04-27T05:49:44.790Z,4.10
2019-04-27T05:52:33.372Z,3.43
2019-04-27T05:55:03.738Z,2.63
2019-04-27T05:57:34.151Z,4.63
2019-04-27T06:00:05.551Z,3.57
2019-04-27T06:02:35.830Z,2.90
2019-04-27T06:05:08.585Z,4.70
2019-04-27T06:07:39.605Z,4.57
2019-04-27T06:10:10.119Z,3.30
2019-04-27T06:12:40.387Z,4.13
2019-04-27T06:15:10.727Z,5.40
2019-04-27T06:17:41.014Z,4.63
2019-04-27T06:20:11.265Z,8.93
2019-04-27T06:22:41.599Z,5.60
2019-04-27T06:25:12.138Z,4.03
2019-04-27T06:27:42.604Z,8.23
2019-04-27T06:30:13.041Z,5.07
2019-04-27T06:32:44.260Z,5.27
2019-04-27T06:35:14.720Z,3.53
2019-04-27T06:37:45.007Z,7.50
2019-04-27T06:40:15.266Z,5.53
2019-04-27T06:42:45.503Z,6.07
2019-04-27T06:45:15.770Z,3.30
2019-04-27T06:47:46.163Z,4.67
2019-04-27T06:50:16.406Z,4.53
2019-04-27T06:52:46.664Z,3.87
2019-04-27T06:55:16.858Z,4.53
2019-04-27T06:57:48.920Z,3.83
2019-04-27T07:00:19.295Z,6.50
2019-04-27T07:02:49.972Z,3.47
2019-04-27T07:05:20.455Z,7.57
2019-04-27T07:07:50.939Z,4.13
2019-04-27T07:10:21.237Z,4.37
2019-04-27T07:13:05.971Z,4.37
2019-04-27T07:15:36.361Z,6.77
2019-04-27T07:18:06.615Z,5.73
2019-04-27T07:20:38.751Z,8.73
2019-04-27T07:23:09.506Z,3.00
2019-04-27T07:25:40.072Z,4.97
2019-04-27T07:28:10.329Z,4.13
2019-04-27T07:30:40.545Z,7.13
2019-04-27T07:33:11.027Z,4.40
2019-04-27T07:35:41.334Z,3.63
2019-04-27T07:38:11.550Z,6.50
2019-04-27T07:40:42.108Z,6.00
2019-04-27T07:43:23.332Z,6.40
2019-04-27T07:45:53.549Z,5.60
2019-04-27T07:48:23.754Z,7.00
2019-04-27T07:50:54.970Z,9.37
2019-04-27T07:53:25.216Z,7.47
2019-04-27T07:55:55.478Z,7.57
2019-04-27T07:58:25.733Z,7.57
2019-04-27T08:00:56.008Z,8.07
2019-04-27T08:03:26.303Z,7.17
2019-04-27T08:05:56.602Z,7.93
2019-04-27T08:08:28.543Z,6.23
2019-04-27T08:10:59.493Z,7.77
2019-04-27T08:13:30.026Z,5.97
2019-04-27T08:16:00.335Z,7.03
2019-04-27T08:18:30.546Z,5.63
2019-04-27T08:21:00.883Z,4.70
2019-04-27T08:23:35.052Z,5.60
2019-04-27T08:26:08.780Z,4.27
2019-04-27T08:29:08.666Z,5.00
2019-04-27T08:31:44.152Z,4.13
2019-04-27T08:34:32.501Z,4.10
2019-04-27T08:37:03.377Z,3.67
2019-04-27T08:39:33.634Z,4.10
2019-04-27T08:42:04.288Z,3.00
2019-04-27T08:44:35.806Z,4.60
2019-04-27T08:47:06.091Z,3.37
2019-04-27T08:49:36.686Z,3.40
2019-04-27T08:52:06.955Z,3.80
2019-04-27T08:54:37.240Z,3.83
2019-04-27T08:57:07.485Z,3.00
2019-04-27T08:59:39.318Z,3.47
2019-04-27T09:02:09.783Z,4.93
2019-04-27T09:04:40.030Z,5.80
2019-04-27T09:07:29.439Z,7.67
2019-04-27T09:10:05.658Z,4.60
2019-04-27T09:13:03.865Z,5.20
2019-04-27T09:15:45.195Z,5.73
2019-04-27T09:18:19.311Z,3.50
2019-04-27T09:20:52.505Z,6.67
2019-04-27T09:23:22.812Z,3.00
2019-04-27T09:25:53.205Z,3.93
2019-04-27T09:28:23.499Z,4.40
2019-04-27T09:30:53.789Z,4.67
2019-04-27T09:33:24.120Z,2.50
2019-04-27T09:35:54.360Z,3.73
2019-04-27T09:38:26.289Z,4.73
2019-04-27T09:40:58.116Z,2.10
2019-04-27T09:43:28.545Z,1.80
2019-04-27T09:45:58.734Z,2.47
2019-04-27T09:48:29.029Z,2.53
2019-04-27T09:50:59.283Z,2.57
2019-04-27T09:53:31.130Z,2.47
2019-04-27T09:56:01.398Z,2.20
2019-04-27T09:58:31.827Z,2.77
2019-04-27T10:01:02.078Z,1.93
2019-04-27T10:03:32.521Z,3.17
2019-04-27T10:06:02.786Z,1.87
2019-04-27T10:08:33.164Z,3.50
2019-04-27T10:11:03.407Z,1.93
2019-04-27T10:13:36.245Z,3.40
2019-04-27T10:16:06.705Z,4.50
2019-04-27T10:18:36.930Z,3.97
2019-04-27T10:21:07.122Z,5.13
2019-04-27T10:23:38.461Z,3.77
2019-04-27T10:26:08.911Z,4.13
2019-04-27T10:28:39.202Z,3.13
2019-04-27T10:31:09.554Z,5.70
2019-04-27T10:33:39.770Z,5.63
2019-04-27T10:36:10.001Z,6.00
2019-04-27T10:38:40.324Z,3.90
2019-04-27T10:41:10.554Z,8.13
2019-04-27T10:43:42.201Z,7.03
2019-04-27T10:46:12.496Z,7.13
2019-04-27T10:48:42.742Z,8.63
2019-04-27T10:51:13.044Z,8.10
2019-04-27T10:53:43.276Z,9.73
2019-04-27T10:56:13.574Z,7.70
2019-04-27T10:58:45.631Z,8.83
2019-04-27T11:01:15.766Z,5.83
2019-04-27T11:04:18.032Z,7.90
2019-04-27T11:06:55.075Z,6.97
2019-04-27T11:09:25.715Z,6.97
2019-04-27T11:11:57.071Z,9.20
2019-04-27T11:14:27.405Z,5.87
2019-04-27T11:16:57.675Z,6.50
2019-04-27T11:19:27.994Z,6.43
2019-04-27T11:21:58.299Z,4.60
2019-04-27T11:24:28.715Z,6.30
2019-04-27T11:26:58.890Z,5.10
2019-04-27T11:29:29.117Z,4.80
2019-04-27T11:31:59.340Z,5.43
2019-04-27T11:34:47.446Z,7.33
2019-04-27T11:37:20.538Z,6.40
2019-04-27T11:39:51.012Z,5.17
2019-04-27T11:42:21.232Z,3.80
2019-04-27T11:44:51.741Z,5.40
2019-04-27T11:47:22.019Z,5.13
2019-04-27T11:49:52.587Z,7.10
2019-04-27T11:52:22.994Z,7.17
2019-04-27T11:54:53.217Z,9.70
2019-04-27T11:57:23.483Z,9.63
2019-04-27T11:59:53.730Z,3.77
2019-04-27T12:02:25.505Z,5.83
2019-04-27T12:04:56.046Z,5.20
2019-04-27T12:07:26.328Z,5.97
2019-04-27T12:09:56.678Z,8.77
2019-04-27T12:12:27.020Z,5.60
2019-04-27T12:14:57.307Z,3.97
2019-04-27T12:17:29.192Z,4.93
2019-04-27T12:19:59.553Z,3.33
2019-04-27T12:22:29.804Z,2.63
2019-04-27T12:25:00.099Z,4.27
2019-04-27T12:27:47.873Z,2.00
2019-04-27T12:30:41.037Z,4.57
2019-04-27T12:33:11.278Z,3.50
2019-04-27T12:35:43.179Z,2.50
2019-04-27T12:38:13.793Z,2.93
2019-04-27T12:40:44.016Z,1.73
2019-04-27T12:43:14.394Z,2.23
2019-04-27T12:45:45.952Z,2.93
2019-04-27T12:48:16.464Z,3.60
2019-04-27T12:50:46.806Z,2.83
2019-04-27T12:53:24.378Z,2.27
2019-04-27T12:56:39.226Z,1.93
2019-04-27T12:59:16.045Z,2.60
2019-04-27T13:01:46.363Z,2.33
2019-04-27T13:04:16.736Z,1.37
2019-04-27T13:06:47.446Z,4.77
2019-04-27T13:09:17.720Z,3.73
2019-04-27T13:11:47.977Z,2.70
2019-04-27T13:14:18.253Z,6.17
2019-04-27T13:16:48.493Z,5.00
2019-04-27T13:19:18.817Z,8.20
2019-04-27T13:21:49.130Z,5.00
2019-04-27T13:24:26.355Z,3.63
2019-04-27T13:26:56.651Z,4.57
2019-04-27T13:29:27.000Z,5.37
2019-04-27T13:31:57.748Z,6.27
2019-04-27T13:34:28.180Z,5.27
2019-04-27T13:37:00.487Z,3.67
2019-04-27T13:39:30.777Z,6.23
2019-04-27T13:42:01.813Z,4.27
2019-04-27T13:44:32.126Z,6.13
2019-04-27T13:47:21.255Z,5.47
2019-04-27T13:50:10.452Z,7.33
2019-04-27T13:52:40.767Z,7.10
2019-04-27T13:55:11.286Z,5.90
2019-04-27T13:57:50.009Z,6.87
2019-04-27T14:00:14.740Z,6.23
2019-04-27T14:02:45.026Z,5.40
2019-04-27T14:05:15.345Z,7.83
2019-04-27T14:07:46.146Z,9.73
2019-04-27T14:10:17.940Z,6.53
2019-04-27T14:12:48.954Z,7.03
2019-04-27T14:15:19.449Z,4.30
2019-04-27T14:17:50.040Z,11.37
2019-04-27T14:20:22.065Z,4.87
2019-04-27T14:22:53.932Z,3.13
2019-04-27T14:25:24.298Z,3.17
2019-04-27T14:27:54.618Z,5.40
2019-04-27T14:30:24.872Z,4.27
2019-04-27T14:32:55.244Z,4.73
2019-04-27T14:35:25.553Z,3.63
2019-04-27T14:37:55.826Z,2.83
2019-04-27T14:40:26.205Z,5.30
2019-04-27T14:42:56.554Z,5.50
2019-04-27T14:45:28.544Z,4.33
2019-04-27T14:47:58.939Z,3.37
2019-04-27T14:50:29.181Z,3.20
2019-04-27T14:52:59.452Z,2.57
2019-04-27T14:55:30.137Z,2.93
2019-04-27T14:58:01.959Z,2.13
2019-04-27T15:00:32.259Z,1.50
2019-04-27T15:03:02.462Z,1.83
2019-04-27T15:05:32.872Z,2.53
2019-04-27T15:08:06.458Z,4.03
2019-04-27T15:10:36.862Z,2.47
2019-04-27T15:13:08.390Z,4.07
2019-04-27T15:15:38.885Z,2.70
2019-04-27T15:18:10.214Z,1.63
2019-04-27T15:20:44.567Z,2.60
2019-04-27T15:23:15.253Z,4.03
2019-04-27T15:25:47.040Z,3.63
2019-04-27T15:28:22.580Z,6.27
2019-04-27T15:31:22.374Z,4.53
2019-04-27T15:34:18.034Z,5.33
2019-04-27T15:37:10.156Z,4.40
2019-04-27T15:40:04.016Z,3.77
2019-04-27T15:42:41.562Z,3.53
2019-04-27T15:45:11.911Z,5.83
2019-04-27T15:47:42.413Z,3.53
2019-04-27T15:50:13.858Z,4.33
2019-04-27T15:52:44.280Z,4.27
2019-04-27T15:55:31.523Z,4.10
2019-04-27T15:57:48.333Z,5.27
2019-04-27T16:00:23.741Z,5.10
2019-04-27T16:02:54.035Z,6.03
2019-04-27T16:05:30.566Z,8.03
2019-04-27T16:07:59.168Z,5.60
2019-04-27T16:10:32.791Z,4.53
2019-04-27T16:13:07.047Z,6.70
2019-04-27T16:15:33.540Z,3.67
2019-04-27T16:18:03.828Z,3.57
2019-04-27T16:20:34.186Z,7.33
2019-04-27T16:23:04.482Z,5.13
2019-04-27T16:25:47.413Z,6.87
2019-04-27T16:28:26.936Z,8.03
2019-04-27T16:30:58.167Z,5.47
2019-04-27T16:33:28.826Z,5.57
2019-04-27T16:36:06.431Z,7.93
2019-04-27T16:38:35.902Z,6.47
2019-04-27T16:41:08.158Z,5.77
2019-04-27T16:43:41.058Z,4.07
2019-04-27T16:46:11.568Z,4.03
2019-04-27T16:48:44.162Z,4.33
2019-04-27T16:51:14.567Z,7.60
2019-04-27T16:53:44.815Z,7.17
2019-04-27T16:56:18.342Z,6.87
2019-04-27T16:58:48.855Z,6.23
2019-04-27T17:01:22.937Z,7.47
2019-04-27T17:03:59.281Z,5.17
2019-04-27T17:06:29.872Z,8.27
2019-04-27T17:09:05.651Z,5.93
2019-04-27T17:11:33.855Z,6.27
2019-04-27T17:14:11.247Z,8.60
2019-04-27T17:17:03.701Z,8.37
2019-04-27T17:19:42.813Z,8.87
2019-04-27T17:22:14.709Z,9.50
2019-04-27T17:24:47.424Z,9.40
2019-04-27T17:27:22.022Z,10.80
2019-04-27T17:29:58.424Z,7.63
2019-04-27T17:32:34.383Z,7.47
2019-04-27T17:35:05.643Z,7.30
2019-04-27T17:37:38.310Z,7.63
2019-04-27T17:40:09.514Z,6.67
2019-04-27T17:42:40.015Z,8.20
2019-04-27T17:45:10.386Z,8.23
2019-04-27T17:47:40.728Z,10.53
2019-04-27T17:50:11.298Z,7.33
2019-04-27T17:52:41.539Z,9.77
2019-04-27T17:55:11.989Z,8.43
2019-04-27T17:57:42.303Z,7.37
2019-04-27T18:00:14.331Z,9.63
2019-04-27T18:02:44.683Z,11.57
2019-04-27T18:05:15.082Z,5.90
2019-04-27T18:07:45.548Z,10.20
2019-04-27T18:10:23.177Z,9.87
2019-04-27T18:12:50.696Z,9.60
2019-04-27T18:15:21.292Z,6.13
2019-04-27T18:17:53.345Z,5.63
2019-04-27T18:20:25.200Z,7.47
2019-04-27T18:23:15.059Z,8.03
2019-04-27T18:25:48.890Z,9.27
2019-04-27T18:28:23.049Z,5.73
2019-04-27T18:31:05.228Z,7.73
2019-04-27T18:33:37.126Z,10.03
2019-04-27T18:36:13.707Z,9.87
2019-04-27T18:38:40.162Z,11.63
2019-04-27T18:41:11.633Z,10.43
2019-04-27T18:43:51.048Z,8.67
2019-04-27T18:46:21.541Z,9.23
2019-04-27T18:49:06.248Z,9.00
2019-04-27T18:52:08.877Z,8.30
2019-04-27T18:54:41.975Z,7.60
2019-04-27T18:57:15.147Z,6.53
2019-04-27T18:59:43.423Z,6.77
2019-04-27T19:02:13.702Z,8.83
2019-04-27T19:04:44.004Z,9.27
2019-04-27T19:07:14.328Z,10.30
2019-04-27T19:09:44.606Z,12.57
2019-04-27T19:12:14.950Z,6.27
2019-04-27T19:14:45.360Z,7.27
2019-04-27T19:17:18.185Z,6.07
2019-04-27T19:19:56.547Z,7.20
2019-04-27T19:22:27.989Z,6.73
2019-04-27T19:24:58.888Z,6.70
2019-04-27T19:27:48.593Z,7.50
2019-04-27T19:30:28.133Z,9.77
2019-04-27T19:32:58.510Z,8.23
2019-04-27T19:35:28.867Z,12.03
2019-04-27T19:37:59.210Z,8.50
2019-04-27T19:40:29.483Z,9.00
2019-04-27T19:42:59.972Z,9.03
2019-04-27T19:45:30.302Z,8.73
2019-04-27T19:48:00.613Z,8.93
2019-04-27T19:50:30.990Z,6.83
2019-04-27T19:53:01.317Z,9.10
2019-04-27T19:55:31.616Z,7.73
2019-04-27T19:58:04.352Z,11.30
2019-04-27T20:01:10.918Z,10.10
2019-04-27T20:03:36.115Z,9.27
2019-04-27T20:06:06.397Z,7.93
2019-04-27T20:08:38.800Z,11.37
2019-04-27T20:11:09.131Z,12.20
2019-04-27T20:13:39.471Z,10.70
2019-04-27T20:16:11.089Z,12.07
2019-04-27T20:18:43.289Z,9.03
2019-04-27T20:21:13.327Z,13.20
2019-04-27T20:23:43.632Z,10.43
2019-04-27T20:26:13.916Z,10.60
2019-04-27T20:28:44.138Z,8.77
2019-04-27T20:31:14.794Z,10.50
2019-04-27T20:33:45.082Z,10.30
2019-04-27T20:36:15.430Z,9.57
2019-04-27T20:38:45.662Z,11.73
2019-04-27T20:41:16.009Z,14.03
2019-04-27T20:43:46.488Z,12.30
2019-04-27T20:46:18.548Z,10.50
2019-04-27T20:48:48.898Z,11.57
2019-04-27T20:51:21.356Z,12.23
2019-04-27T20:53:53.213Z,12.37
2019-04-27T20:56:23.488Z,11.13
2019-04-27T20:58:53.674Z,10.77
2019-04-27T21:01:25.381Z,11.13
2019-04-27T21:03:57.784Z,10.00
2019-04-27T21:06:42.601Z,14.30
2019-04-27T21:09:18.359Z,9.60
2019-04-27T21:11:49.311Z,16.30
2019-04-27T21:14:21.603Z,16.27
2019-04-27T21:16:51.811Z,18.33
2019-04-27T21:19:22.223Z,12.90
2019-04-27T21:21:52.537Z,12.43
2019-04-27T21:24:22.881Z,18.37
2019-04-27T21:26:53.229Z,10.47
2019-04-27T21:29:23.473Z,10.97
2019-04-27T21:31:53.894Z,15.87
2019-04-27T21:34:24.176Z,12.77
2019-04-27T21:36:54.478Z,13.43
2019-04-27T21:39:24.763Z,10.57
2019-04-27T21:41:55.034Z,17.47
2019-04-27T21:44:25.350Z,13.30
2019-04-27T21:46:55.763Z,14.93
2019-04-27T21:49:26.013Z,10.73
2019-04-27T21:52:06.906Z,10.77
2019-04-27T21:54:38.073Z,15.43
2019-04-27T21:57:08.285Z,13.90
2019-04-27T21:59:39.081Z,8.17
2019-04-27T22:02:12.079Z,16.10
2019-04-27T22:04:42.633Z,18.27
2019-04-27T22:07:12.850Z,12.40
2019-04-27T22:09:43.380Z,10.57
2019-04-27T22:12:15.044Z,17.67
2019-04-27T22:14:45.317Z,13.70
2019-04-27T22:17:15.570Z,12.53
2019-04-27T22:19:45.988Z,12.80
2019-04-27T22:22:24.595Z,11.80
2019-04-27T22:25:06.022Z,13.37
2019-04-27T22:27:36.262Z,13.57
2019-04-27T22:30:07.355Z,11.53
2019-04-27T22:32:37.830Z,9.73
2019-04-27T22:35:08.116Z,14.23
2019-04-27T22:37:38.938Z,18.53
2019-04-27T22:40:33.617Z,14.83
2019-04-27T22:43:20.875Z,11.23
2019-04-27T22:45:51.250Z,17.37
2019-04-27T22:48:21.510Z,13.33
2019-04-27T22:50:51.800Z,15.33
2019-04-27T22:53:22.072Z,13.10
2019-04-27T22:56:14.615Z,13.77
2019-04-27T22:58:58.529Z,19.70
2019-04-27T23:01:43.435Z,11.17
2019-04-27T23:04:15.938Z,15.47
2019-04-27T23:06:46.173Z,11.97
2019-04-27T23:09:16.775Z,13.67
2019-04-27T23:11:46.974Z,14.23
2019-04-27T23:14:17.342Z,11.23
2019-04-27T23:16:49.204Z,12.37
2019-04-27T23:19:20.998Z,9.67
2019-04-27T23:21:53.150Z,13.30
2019-04-27T23:24:23.406Z,15.10
2019-04-27T23:26:53.727Z,13.20
2019-04-27T23:29:23.964Z,19.93
2019-04-27T23:32:03.905Z,15.43
2019-04-27T23:34:34.137Z,17.83
2019-04-27T23:37:04.443Z,8.67
2019-04-27T23:39:34.733Z,15.93
2019-04-27T23:42:06.721Z,13.17
2019-04-27T23:44:36.923Z,13.27
2019-04-27T23:47:07.151Z,13.93
2019-04-27T23:49:37.401Z,17.00
2019-04-27T23:52:18.462Z,9.93
2019-04-27T23:54:48.701Z,14.73
2019-04-27T23:57:31.727Z,15.00
